sensor_id;sensor_type;location;lat;lon;timestamp;temperature;humidity
20081;DHT22;10200;49.232;9.222;2023-02-25T00:00:45;7.60;99.90
20081;DHT22;10200;49.232;9.222;2023-02-25T00:03:11;7.50;99.90
20081;DHT22;10200;49.232;9.222;2023-02-25T00:05:40;7.50;99.90
20081;DHT22;10200;49.232;9.222;2023-02-25T00:08:07;7.50;99.90
20081;DHT22;10200;49.232;9.222;2023-02-25T00:10:33;7.50;99.90
20081;DHT22;10200;49.232;9.222;2023-02-25T00:12:59;7.40;99.90
20081;DHT22;10200;49.232;9.222;2023-02-25T00:15:25;7.40;99.90
20081;DHT22;10200;49.232;9.222;2023-02-25T00:17:50;7.50;99.90
20081;DHT22;10200;49.232;9.222;2023-02-25T00:20:17;7.50;99.90
20081;DHT22;10200;49.232;9.222;2023-02-25T00:22:47;7.50;99.90
20081;DHT22;10200;49.232;9.222;2023-02-25T00:25:13;7.50;99.90
20081;DHT22;10200;49.232;9.222;2023-02-25T00:27:41;7.50;99.90
20081;DHT22;10200;49.232;9.222;2023-02-25T00:30:08;7.50;99.90
20081;DHT22;10200;49.232;9.222;2023-02-25T00:32:35;7.50;99.90
20081;DHT22;10200;49.232;9.222;2023-02-25T00:35:01;7.50;99.90
20081;DHT22;10200;49.232;9.222;2023-02-25T00:37:27;7.50;99.90
20081;DHT22;10200;49.232;9.222;2023-02-25T00:39:52;7.60;99.90
20081;DHT22;10200;49.232;9.222;2023-02-25T00:42:18;7.40;99.90
20081;DHT22;10200;49.232;9.222;2023-02-25T00:44:49;7.40;99.90
20081;DHT22;10200;49.232;9.222;2023-02-25T00:47:17;7.40;99.90
20081;DHT22;10200;49.232;9.222;2023-02-25T00:49:44;7.40;99.90
20081;DHT22;10200;49.232;9.222;2023-02-25T00:52:11;7.40;99.90
20081;DHT22;10200;49.232;9.222;2023-02-25T00:54:37;7.30;99.90
20081;DHT22;10200;49.232;9.222;2023-02-25T00:57:04;7.40;99.90
20081;DHT22;10200;49.232;9.222;2023-02-25T00:59:30;7.30;99.90
20081;DHT22;10200;49.232;9.222;2023-02-25T01:01:56;7.30;99.90
20081;DHT22;10200;49.232;9.222;2023-02-25T01:04:21;7.30;99.90
20081;DHT22;10200;49.232;9.222;2023-02-25T01:06:47;7.30;99.90
20081;DHT22;10200;49.232;9.222;2023-02-25T01:09:13;7.30;99.90
20081;DHT22;10200;49.232;9.222;2023-02-25T01:11:41;7.30;99.90
20081;DHT22;10200;49.232;9.222;2023-02-25T01:14:11;7.20;99.90
20081;DHT22;10200;49.232;9.222;2023-02-25T01:16:37;7.30;99.90
20081;DHT22;10200;49.232;9.222;2023-02-25T01:19:08;7.20;99.90
20081;DHT22;10200;49.232;9.222;2023-02-25T01:21:39;7.30;99.90
20081;DHT22;10200;49.232;9.222;2023-02-25T01:24:07;7.20;99.90
20081;DHT22;10200;49.232;9.222;2023-02-25T01:26:38;7.20;99.90
20081;DHT22;10200;49.232;9.222;2023-02-25T01:29:09;7.10;99.90
20081;DHT22;10200;49.232;9.222;2023-02-25T01:31:34;7.10;99.90
20081;DHT22;10200;49.232;9.222;2023-02-25T01:34:04;7.00;99.90
20081;DHT22;10200;49.232;9.222;2023-02-25T01:36:31;7.00;99.90
20081;DHT22;10200;49.232;9.222;2023-02-25T01:38:58;7.00;99.90
20081;DHT22;10200;49.232;9.222;2023-02-25T01:41:24;6.90;99.90
20081;DHT22;10200;49.232;9.222;2023-02-25T01:46:42;6.80;99.90
20081;DHT22;10200;49.232;9.222;2023-02-25T01:49:31;6.80;99.90
20081;DHT22;10200;49.232;9.222;2023-02-25T01:52:32;6.70;99.90
20081;DHT22;10200;49.232;9.222;2023-02-25T01:54:58;6.60;99.90
20081;DHT22;10200;49.232;9.222;2023-02-25T01:57:25;6.60;99.90
20081;DHT22;10200;49.232;9.222;2023-02-25T01:59:52;6.50;99.90
20081;DHT22;10200;49.232;9.222;2023-02-25T02:02:21;6.60;99.90
20081;DHT22;10200;49.232;9.222;2023-02-25T02:04:48;6.60;99.90
20081;DHT22;10200;49.232;9.222;2023-02-25T02:07:15;6.60;99.90
20081;DHT22;10200;49.232;9.222;2023-02-25T02:09:42;6.60;99.90
20081;DHT22;10200;49.232;9.222;2023-02-25T02:12:53;6.50;99.90
20081;DHT22;10200;49.232;9.222;2023-02-25T02:15:13;6.60;99.90
20081;DHT22;10200;49.232;9.222;2023-02-25T02:17:54;6.50;99.90
20081;DHT22;10200;49.232;9.222;2023-02-25T02:20:28;6.50;99.90
20081;DHT22;10200;49.232;9.222;2023-02-25T02:23:11;6.50;99.90
20081;DHT22;10200;49.232;9.222;2023-02-25T02:34:19;6.50;99.90
20081;DHT22;10200;49.232;9.222;2023-02-25T02:37:02;6.50;99.90
20081;DHT22;10200;49.232;9.222;2023-02-25T02:47:39;6.50;99.90
20081;DHT22;10200;49.232;9.222;2023-02-25T02:50:11;6.50;99.90
20081;DHT22;10200;49.232;9.222;2023-02-25T02:52:41;6.50;99.90
20081;DHT22;10200;49.232;9.222;2023-02-25T02:55:17;6.40;99.90
20081;DHT22;10200;49.232;9.222;2023-02-25T02:57:48;6.40;99.90
20081;DHT22;10200;49.232;9.222;2023-02-25T03:00:16;6.30;99.90
20081;DHT22;10200;49.232;9.222;2023-02-25T03:02:49;6.40;99.90
20081;DHT22;10200;49.232;9.222;2023-02-25T03:05:17;6.30;99.90
20081;DHT22;10200;49.232;9.222;2023-02-25T03:07:49;6.40;99.90
20081;DHT22;10200;49.232;9.222;2023-02-25T03:10:18;6.40;99.90
20081;DHT22;10200;49.232;9.222;2023-02-25T03:12:44;6.40;99.90
20081;DHT22;10200;49.232;9.222;2023-02-25T03:15:10;6.30;99.90
20081;DHT22;10200;49.232;9.222;2023-02-25T03:17:42;6.40;99.90
20081;DHT22;10200;49.232;9.222;2023-02-25T03:20:15;6.40;99.90
20081;DHT22;10200;49.232;9.222;2023-02-25T03:22:43;6.40;99.90
20081;DHT22;10200;49.232;9.222;2023-02-25T03:25:23;6.40;99.90
20081;DHT22;10200;49.232;9.222;2023-02-25T03:27:52;6.30;99.90
20081;DHT22;10200;49.232;9.222;2023-02-25T03:36:05;6.40;99.90
20081;DHT22;10200;49.232;9.222;2023-02-25T03:38:33;6.40;99.90
20081;DHT22;10200;49.232;9.222;2023-02-25T03:41:03;6.40;99.90
20081;DHT22;10200;49.232;9.222;2023-02-25T03:43:36;6.30;99.90
20081;DHT22;10200;49.232;9.222;2023-02-25T03:46:04;6.30;99.90
20081;DHT22;10200;49.232;9.222;2023-02-25T03:48:30;6.40;99.90
20081;DHT22;10200;49.232;9.222;2023-02-25T03:51:02;6.30;99.90
20081;DHT22;10200;49.232;9.222;2023-02-25T03:53:29;6.40;99.90
20081;DHT22;10200;49.232;9.222;2023-02-25T03:55:56;6.40;99.90
20081;DHT22;10200;49.232;9.222;2023-02-25T03:58:22;6.40;99.90
20081;DHT22;10200;49.232;9.222;2023-02-25T04:00:51;6.40;99.90
20081;DHT22;10200;49.232;9.222;2023-02-25T04:03:18;6.40;99.90
20081;DHT22;10200;49.232;9.222;2023-02-25T04:05:44;6.40;99.90
20081;DHT22;10200;49.232;9.222;2023-02-25T04:08:10;6.40;99.90
20081;DHT22;10200;49.232;9.222;2023-02-25T04:10:43;6.40;99.90
20081;DHT22;10200;49.232;9.222;2023-02-25T04:13:09;6.40;99.90
20081;DHT22;10200;49.232;9.222;2023-02-25T04:15:35;6.40;99.90
20081;DHT22;10200;49.232;9.222;2023-02-25T04:18:01;6.40;99.90
20081;DHT22;10200;49.232;9.222;2023-02-25T04:20:28;6.50;99.90
20081;DHT22;10200;49.232;9.222;2023-02-25T04:22:57;6.50;99.90
20081;DHT22;10200;49.232;9.222;2023-02-25T04:25:23;6.50;99.90
20081;DHT22;10200;49.232;9.222;2023-02-25T04:27:49;6.40;99.90
20081;DHT22;10200;49.232;9.222;2023-02-25T04:30:15;6.50;99.90
20081;DHT22;10200;49.232;9.222;2023-02-25T04:32:41;6.40;99.90
20081;DHT22;10200;49.232;9.222;2023-02-25T04:35:07;6.40;99.90
20081;DHT22;10200;49.232;9.222;2023-02-25T04:37:39;6.40;99.90
20081;DHT22;10200;49.232;9.222;2023-02-25T04:40:06;6.30;99.90
20081;DHT22;10200;49.232;9.222;2023-02-25T04:42:41;6.40;99.90
20081;DHT22;10200;49.232;9.222;2023-02-25T04:45:08;6.40;99.90
20081;DHT22;10200;49.232;9.222;2023-02-25T04:47:34;6.40;99.90
20081;DHT22;10200;49.232;9.222;2023-02-25T04:50:00;6.50;99.90
20081;DHT22;10200;49.232;9.222;2023-02-25T04:52:26;6.40;99.90
20081;DHT22;10200;49.232;9.222;2023-02-25T04:54:52;6.40;99.90
20081;DHT22;10200;49.232;9.222;2023-02-25T04:57:18;6.40;99.90
20081;DHT22;10200;49.232;9.222;2023-02-25T04:59:44;6.40;99.90
20081;DHT22;10200;49.232;9.222;2023-02-25T05:02:10;6.40;99.90
20081;DHT22;10200;49.232;9.222;2023-02-25T05:04:36;6.40;99.90
20081;DHT22;10200;49.232;9.222;2023-02-25T05:07:03;6.40;99.90
20081;DHT22;10200;49.232;9.222;2023-02-25T05:09:28;6.50;99.90
20081;DHT22;10200;49.232;9.222;2023-02-25T05:11:54;6.40;99.90
20081;DHT22;10200;49.232;9.222;2023-02-25T05:14:20;6.50;99.90
20081;DHT22;10200;49.232;9.222;2023-02-25T05:16:45;6.50;99.90
20081;DHT22;10200;49.232;9.222;2023-02-25T05:19:20;6.50;99.90
20081;DHT22;10200;49.232;9.222;2023-02-25T05:21:50;6.50;99.90
20081;DHT22;10200;49.232;9.222;2023-02-25T05:24:16;6.40;99.90
20081;DHT22;10200;49.232;9.222;2023-02-25T05:26:43;6.40;99.90
20081;DHT22;10200;49.232;9.222;2023-02-25T05:29:09;6.40;99.90
20081;DHT22;10200;49.232;9.222;2023-02-25T05:31:35;6.40;99.90
20081;DHT22;10200;49.232;9.222;2023-02-25T05:34:00;6.40;99.90
20081;DHT22;10200;49.232;9.222;2023-02-25T05:36:26;6.30;99.90
20081;DHT22;10200;49.232;9.222;2023-02-25T05:38:56;6.30;99.90
20081;DHT22;10200;49.232;9.222;2023-02-25T05:41:28;6.30;99.90
20081;DHT22;10200;49.232;9.222;2023-02-25T05:43:54;6.30;99.90
20081;DHT22;10200;49.232;9.222;2023-02-25T05:46:20;6.40;99.90
20081;DHT22;10200;49.232;9.222;2023-02-25T05:48:46;6.40;99.90
20081;DHT22;10200;49.232;9.222;2023-02-25T05:51:18;6.30;99.90
20081;DHT22;10200;49.232;9.222;2023-02-25T05:53:45;6.30;99.90
20081;DHT22;10200;49.232;9.222;2023-02-25T05:56:15;6.30;99.90
20081;DHT22;10200;49.232;9.222;2023-02-25T05:58:40;6.20;99.80
20081;DHT22;10200;49.232;9.222;2023-02-25T06:01:10;6.20;99.70
20081;DHT22;10200;49.232;9.222;2023-02-25T06:03:42;6.20;99.30
20081;DHT22;10200;49.232;9.222;2023-02-25T06:06:09;6.20;99.50
20081;DHT22;10200;49.232;9.222;2023-02-25T06:08:38;6.20;99.70
20081;DHT22;10200;49.232;9.222;2023-02-25T06:11:07;6.20;99.00
20081;DHT22;10200;49.232;9.222;2023-02-25T06:13:33;6.20;99.00
20081;DHT22;10200;49.232;9.222;2023-02-25T06:16:02;6.20;98.80
20081;DHT22;10200;49.232;9.222;2023-02-25T06:18:28;6.30;98.80
20081;DHT22;10200;49.232;9.222;2023-02-25T06:20:53;6.30;98.90
20081;DHT22;10200;49.232;9.222;2023-02-25T06:23:19;6.30;98.30
20081;DHT22;10200;49.232;9.222;2023-02-25T06:25:44;6.30;97.80
20081;DHT22;10200;49.232;9.222;2023-02-25T06:28:10;6.30;98.80
20081;DHT22;10200;49.232;9.222;2023-02-25T06:30:36;6.30;98.80
20081;DHT22;10200;49.232;9.222;2023-02-25T06:33:01;6.30;98.40
20081;DHT22;10200;49.232;9.222;2023-02-25T06:35:27;6.30;98.40
20081;DHT22;10200;49.232;9.222;2023-02-25T06:37:57;6.30;98.30
20081;DHT22;10200;49.232;9.222;2023-02-25T06:40:23;6.20;97.50
20081;DHT22;10200;49.232;9.222;2023-02-25T06:42:49;6.30;98.40
20081;DHT22;10200;49.232;9.222;2023-02-25T06:45:14;6.30;98.20
20081;DHT22;10200;49.232;9.222;2023-02-25T06:47:40;6.30;97.90
20081;DHT22;10200;49.232;9.222;2023-02-25T06:50:06;6.30;97.80
20081;DHT22;10200;49.232;9.222;2023-02-25T06:52:32;6.30;97.10
20081;DHT22;10200;49.232;9.222;2023-02-25T06:54:58;6.30;96.90
20081;DHT22;10200;49.232;9.222;2023-02-25T06:57:23;6.30;97.40
20081;DHT22;10200;49.232;9.222;2023-02-25T06:59:49;6.30;97.60
20081;DHT22;10200;49.232;9.222;2023-02-25T07:02:15;6.40;97.50
20081;DHT22;10200;49.232;9.222;2023-02-25T07:04:41;6.40;96.80
20081;DHT22;10200;49.232;9.222;2023-02-25T07:07:07;6.40;96.90
20081;DHT22;10200;49.232;9.222;2023-02-25T07:09:32;6.50;96.50
20081;DHT22;10200;49.232;9.222;2023-02-25T07:11:58;6.50;96.40
20081;DHT22;10200;49.232;9.222;2023-02-25T07:14:24;6.50;96.00
20081;DHT22;10200;49.232;9.222;2023-02-25T07:16:49;6.50;96.40
20081;DHT22;10200;49.232;9.222;2023-02-25T07:19:16;6.50;96.20
20081;DHT22;10200;49.232;9.222;2023-02-25T07:21:42;6.50;96.00
20081;DHT22;10200;49.232;9.222;2023-02-25T07:24:09;6.60;95.90
20081;DHT22;10200;49.232;9.222;2023-02-25T07:26:35;6.60;95.50
20081;DHT22;10200;49.232;9.222;2023-02-25T07:29:03;6.60;94.70
20081;DHT22;10200;49.232;9.222;2023-02-25T07:31:29;6.50;94.60
20081;DHT22;10200;49.232;9.222;2023-02-25T07:33:55;6.50;95.00
20081;DHT22;10200;49.232;9.222;2023-02-25T07:36:22;6.50;94.10
20081;DHT22;10200;49.232;9.222;2023-02-25T07:38:47;6.50;93.90
20081;DHT22;10200;49.232;9.222;2023-02-25T07:41:19;6.50;93.60
20081;DHT22;10200;49.232;9.222;2023-02-25T07:43:45;6.50;93.50
20081;DHT22;10200;49.232;9.222;2023-02-25T07:46:11;6.50;93.60
20081;DHT22;10200;49.232;9.222;2023-02-25T07:48:37;6.50;93.30
20081;DHT22;10200;49.232;9.222;2023-02-25T07:53:56;6.50;92.70
20081;DHT22;10200;49.232;9.222;2023-02-25T07:56:23;6.60;92.80
20081;DHT22;10200;49.232;9.222;2023-02-25T07:58:50;6.60;92.90
20081;DHT22;10200;49.232;9.222;2023-02-25T08:01:24;6.70;92.70
20081;DHT22;10200;49.232;9.222;2023-02-25T08:03:52;6.70;92.20
20081;DHT22;10200;49.232;9.222;2023-02-25T08:06:18;6.70;91.70
20081;DHT22;10200;49.232;9.222;2023-02-25T08:08:45;6.70;91.50
20081;DHT22;10200;49.232;9.222;2023-02-25T08:11:13;6.70;91.20
20081;DHT22;10200;49.232;9.222;2023-02-25T08:13:39;6.70;91.50
20081;DHT22;10200;49.232;9.222;2023-02-25T08:16:07;6.70;90.90
20081;DHT22;10200;49.232;9.222;2023-02-25T08:18:33;6.80;91.00
20081;DHT22;10200;49.232;9.222;2023-02-25T08:20:59;6.80;91.20
20081;DHT22;10200;49.232;9.222;2023-02-25T08:23:25;6.90;91.10
20081;DHT22;10200;49.232;9.222;2023-02-25T08:25:56;7.00;90.60
20081;DHT22;10200;49.232;9.222;2023-02-25T08:28:23;7.00;89.40
20081;DHT22;10200;49.232;9.222;2023-02-25T08:30:51;7.00;89.80
20081;DHT22;10200;49.232;9.222;2023-02-25T08:33:17;7.10;89.80
20081;DHT22;10200;49.232;9.222;2023-02-25T08:35:43;7.10;88.80
20081;DHT22;10200;49.232;9.222;2023-02-25T08:38:09;7.10;88.10
20081;DHT22;10200;49.232;9.222;2023-02-25T08:40:37;7.10;87.70
20081;DHT22;10200;49.232;9.222;2023-02-25T08:43:04;7.20;87.60
20081;DHT22;10200;49.232;9.222;2023-02-25T08:45:30;7.30;88.00
20081;DHT22;10200;49.232;9.222;2023-02-25T08:47:55;7.30;88.40
20081;DHT22;10200;49.232;9.222;2023-02-25T08:50:21;7.50;87.50
20081;DHT22;10200;49.232;9.222;2023-02-25T08:52:48;7.50;86.80
20081;DHT22;10200;49.232;9.222;2023-02-25T08:55:14;7.70;87.20
20081;DHT22;10200;49.232;9.222;2023-02-25T08:57:41;7.70;86.00
20081;DHT22;10200;49.232;9.222;2023-02-25T09:00:09;7.70;85.50
20081;DHT22;10200;49.232;9.222;2023-02-25T09:02:35;7.70;85.30
20081;DHT22;10200;49.232;9.222;2023-02-25T09:05:02;7.70;84.70
20081;DHT22;10200;49.232;9.222;2023-02-25T09:07:28;7.60;84.10
20081;DHT22;10200;49.232;9.222;2023-02-25T09:09:54;7.70;84.40
20081;DHT22;10200;49.232;9.222;2023-02-25T09:12:20;7.60;83.50
20081;DHT22;10200;49.232;9.222;2023-02-25T09:14:45;7.60;84.00
20081;DHT22;10200;49.232;9.222;2023-02-25T09:17:11;7.50;83.30
20081;DHT22;10200;49.232;9.222;2023-02-25T09:19:37;7.50;84.50
20081;DHT22;10200;49.232;9.222;2023-02-25T09:22:08;7.60;85.00
20081;DHT22;10200;49.232;9.222;2023-02-25T09:24:35;7.60;85.50
20081;DHT22;10200;49.232;9.222;2023-02-25T09:27:02;7.60;85.20
20081;DHT22;10200;49.232;9.222;2023-02-25T09:29:36;7.70;85.00
20081;DHT22;10200;49.232;9.222;2023-02-25T09:32:03;7.70;85.10
20081;DHT22;10200;49.232;9.222;2023-02-25T09:34:28;7.70;85.00
20081;DHT22;10200;49.232;9.222;2023-02-25T09:36:54;7.70;85.20
20081;DHT22;10200;49.232;9.222;2023-02-25T09:39:21;7.70;84.70
20081;DHT22;10200;49.232;9.222;2023-02-25T09:42:07;7.80;85.20
20081;DHT22;10200;49.232;9.222;2023-02-25T09:44:45;7.80;84.40
20081;DHT22;10200;49.232;9.222;2023-02-25T09:47:21;7.80;84.40
20081;DHT22;10200;49.232;9.222;2023-02-25T09:49:57;7.90;84.70
20081;DHT22;10200;49.232;9.222;2023-02-25T09:57:52;8.00;82.90
20081;DHT22;10200;49.232;9.222;2023-02-25T10:00:21;7.90;81.90
20081;DHT22;10200;49.232;9.222;2023-02-25T10:02:53;7.80;82.40
20081;DHT22;10200;49.232;9.222;2023-02-25T10:11:26;7.60;83.40
20081;DHT22;10200;49.232;9.222;2023-02-25T10:21:07;7.50;89.70
20081;DHT22;10200;49.232;9.222;2023-02-25T10:23:32;7.50;90.80
20081;DHT22;10200;49.232;9.222;2023-02-25T10:28:38;7.50;91.80
20081;DHT22;10200;49.232;9.222;2023-02-25T10:31:14;7.50;92.30
20081;DHT22;10200;49.232;9.222;2023-02-25T10:33:43;7.60;92.60
20081;DHT22;10200;49.232;9.222;2023-02-25T10:36:17;7.50;92.70
20081;DHT22;10200;49.232;9.222;2023-02-25T10:38:46;7.50;93.60
20081;DHT22;10200;49.232;9.222;2023-02-25T10:41:13;7.50;93.90
20081;DHT22;10200;49.232;9.222;2023-02-25T10:43:39;7.50;94.70
20081;DHT22;10200;49.232;9.222;2023-02-25T10:49:17;7.70;94.60
20081;DHT22;10200;49.232;9.222;2023-02-25T10:52:01;7.70;93.60
20081;DHT22;10200;49.232;9.222;2023-02-25T10:54:32;7.70;94.30
20081;DHT22;10200;49.232;9.222;2023-02-25T10:57:01;7.80;93.80
20081;DHT22;10200;49.232;9.222;2023-02-25T10:59:38;7.80;92.90
20081;DHT22;10200;49.232;9.222;2023-02-25T11:02:24;7.70;92.70
20081;DHT22;10200;49.232;9.222;2023-02-25T11:04:53;7.70;92.60
20081;DHT22;10200;49.232;9.222;2023-02-25T11:12:41;7.70;93.50
20081;DHT22;10200;49.232;9.222;2023-02-25T11:15:36;7.70;92.90
20081;DHT22;10200;49.232;9.222;2023-02-25T11:18:22;7.70;92.80
20081;DHT22;10200;49.232;9.222;2023-02-25T11:20:55;7.70;92.60
20081;DHT22;10200;49.232;9.222;2023-02-25T11:26:07;7.70;91.90
20081;DHT22;10200;49.232;9.222;2023-02-25T11:28:43;7.60;91.90
20081;DHT22;10200;49.232;9.222;2023-02-25T11:31:23;7.70;92.10
20081;DHT22;10200;49.232;9.222;2023-02-25T11:33:56;7.60;92.00
20081;DHT22;10200;49.232;9.222;2023-02-25T11:36:30;7.40;92.60
20081;DHT22;10200;49.232;9.222;2023-02-25T11:41:47;7.30;95.10
20081;DHT22;10200;49.232;9.222;2023-02-25T11:44:41;7.30;95.70
20081;DHT22;10200;49.232;9.222;2023-02-25T11:47:24;7.30;96.10
20081;DHT22;10200;49.232;9.222;2023-02-25T11:53:00;7.60;97.90
20081;DHT22;10200;49.232;9.222;2023-02-25T12:01:09;7.80;97.50
20081;DHT22;10200;49.232;9.222;2023-02-25T12:03:59;7.80;97.10
20081;DHT22;10200;49.232;9.222;2023-02-25T12:15:23;7.90;96.60
20081;DHT22;10200;49.232;9.222;2023-02-25T12:23:35;8.10;94.90
20081;DHT22;10200;49.232;9.222;2023-02-25T12:45:43;8.20;90.00
20081;DHT22;10200;49.232;9.222;2023-02-25T12:51:40;8.00;87.70
20081;DHT22;10200;49.232;9.222;2023-02-25T12:54:29;8.00;88.30
20081;DHT22;10200;49.232;9.222;2023-02-25T13:05:44;8.00;88.00
20081;DHT22;10200;49.232;9.222;2023-02-25T13:10:56;8.00;84.50
20081;DHT22;10200;49.232;9.222;2023-02-25T13:30:50;8.70;81.20
20081;DHT22;10200;49.232;9.222;2023-02-25T13:36:51;8.50;80.70
20081;DHT22;10200;49.232;9.222;2023-02-25T13:39:48;8.50;80.70
20081;DHT22;10200;49.232;9.222;2023-02-25T13:48:10;8.30;79.00
20081;DHT22;10200;49.232;9.222;2023-02-25T13:53:47;8.40;79.60
20081;DHT22;10200;49.232;9.222;2023-02-25T14:15:38;9.20;76.40
20081;DHT22;10200;49.232;9.222;2023-02-25T14:18:10;9.30;75.90
20081;DHT22;10200;49.232;9.222;2023-02-25T14:26:22;9.70;73.70
20081;DHT22;10200;49.232;9.222;2023-02-25T14:29:10;9.70;71.80
20081;DHT22;10200;49.232;9.222;2023-02-25T14:45:35;8.90;75.60
20081;DHT22;10200;49.232;9.222;2023-02-25T14:54:23;7.90;84.80
20081;DHT22;10200;49.232;9.222;2023-02-25T14:57:13;7.60;87.80
20081;DHT22;10200;49.232;9.222;2023-02-25T15:11:45;6.80;95.30
20081;DHT22;10200;49.232;9.222;2023-02-25T15:17:04;6.90;98.80
20081;DHT22;10200;49.232;9.222;2023-02-25T15:24:42;6.90;99.90
20081;DHT22;10200;49.232;9.222;2023-02-25T15:30:13;7.10;99.90
20081;DHT22;10200;49.232;9.222;2023-02-25T15:32:51;7.20;99.90
20081;DHT22;10200;49.232;9.222;2023-02-25T15:35:23;7.30;99.90
20081;DHT22;10200;49.232;9.222;2023-02-25T15:42:44;7.40;99.90
20081;DHT22;10200;49.232;9.222;2023-02-25T16:13:52;7.50;99.90
20081;DHT22;10200;49.232;9.222;2023-02-25T16:16:19;7.50;99.90
20081;DHT22;10200;49.232;9.222;2023-02-25T16:18:48;7.50;99.90
20081;DHT22;10200;49.232;9.222;2023-02-25T16:21:22;7.10;96.40
20081;DHT22;10200;49.232;9.222;2023-02-25T16:23:50;6.50;96.20
20081;DHT22;10200;49.232;9.222;2023-02-25T16:29:06;5.40;99.30
20081;DHT22;10200;49.232;9.222;2023-02-25T16:37:02;4.60;99.90
20081;DHT22;10200;49.232;9.222;2023-02-25T16:39:30;4.40;99.90
20081;DHT22;10200;49.232;9.222;2023-02-25T16:42:04;4.50;99.90
20081;DHT22;10200;49.232;9.222;2023-02-25T16:44:39;4.40;99.90
20081;DHT22;10200;49.232;9.222;2023-02-25T16:47:24;4.40;99.90
20081;DHT22;10200;49.232;9.222;2023-02-25T16:49:52;4.40;99.90
20081;DHT22;10200;49.232;9.222;2023-02-25T16:52:27;4.40;99.90
20081;DHT22;10200;49.232;9.222;2023-02-25T16:55:06;4.50;99.90
20081;DHT22;10200;49.232;9.222;2023-02-25T16:57:36;4.50;99.90
20081;DHT22;10200;49.232;9.222;2023-02-25T17:02:32;4.70;99.90
20081;DHT22;10200;49.232;9.222;2023-02-25T17:07:58;4.80;99.90
20081;DHT22;10200;49.232;9.222;2023-02-25T17:10:29;4.90;99.90
20081;DHT22;10200;49.232;9.222;2023-02-25T17:12:55;5.00;99.90
20081;DHT22;10200;49.232;9.222;2023-02-25T17:15:27;5.00;99.90
20081;DHT22;10200;49.232;9.222;2023-02-25T17:20:41;5.10;99.90
20081;DHT22;10200;49.232;9.222;2023-02-25T17:23:10;5.10;99.90
20081;DHT22;10200;49.232;9.222;2023-02-25T17:25:39;5.10;99.90
20081;DHT22;10200;49.232;9.222;2023-02-25T17:28:07;5.10;99.90
20081;DHT22;10200;49.232;9.222;2023-02-25T17:30:42;5.10;99.90
20081;DHT22;10200;49.232;9.222;2023-02-25T17:33:24;5.10;99.90
20081;DHT22;10200;49.232;9.222;2023-02-25T17:36:09;5.10;99.90
20081;DHT22;10200;49.232;9.222;2023-02-25T17:38:36;5.10;99.90
20081;DHT22;10200;49.232;9.222;2023-02-25T17:41:02;5.10;99.90
20081;DHT22;10200;49.232;9.222;2023-02-25T17:43:33;5.10;99.90
20081;DHT22;10200;49.232;9.222;2023-02-25T17:46:01;5.10;99.90
20081;DHT22;10200;49.232;9.222;2023-02-25T17:48:31;5.10;99.90
20081;DHT22;10200;49.232;9.222;2023-02-25T17:51:02;5.20;99.90
20081;DHT22;10200;49.232;9.222;2023-02-25T17:58:40;5.20;99.90
20081;DHT22;10200;49.232;9.222;2023-02-25T18:01:06;5.20;99.90
20081;DHT22;10200;49.232;9.222;2023-02-25T18:03:45;5.20;99.90
20081;DHT22;10200;49.232;9.222;2023-02-25T18:06:27;5.20;99.90
20081;DHT22;10200;49.232;9.222;2023-02-25T18:08:54;5.10;99.90
20081;DHT22;10200;49.232;9.222;2023-02-25T18:11:26;5.20;99.90
20081;DHT22;10200;49.232;9.222;2023-02-25T18:13:53;5.10;99.90
20081;DHT22;10200;49.232;9.222;2023-02-25T18:16:34;5.10;99.90
20081;DHT22;10200;49.232;9.222;2023-02-25T18:19:01;5.10;99.90
20081;DHT22;10200;49.232;9.222;2023-02-25T18:21:38;5.00;99.90
20081;DHT22;10200;49.232;9.222;2023-02-25T18:24:04;5.00;99.90
20081;DHT22;10200;49.232;9.222;2023-02-25T18:26:30;5.00;99.90
20081;DHT22;10200;49.232;9.222;2023-02-25T18:28:56;5.00;99.90
20081;DHT22;10200;49.232;9.222;2023-02-25T18:31:24;5.00;99.90
20081;DHT22;10200;49.232;9.222;2023-02-25T18:33:50;4.90;99.90
20081;DHT22;10200;49.232;9.222;2023-02-25T18:36:22;4.90;99.90
20081;DHT22;10200;49.232;9.222;2023-02-25T18:38:51;4.90;99.90
20081;DHT22;10200;49.232;9.222;2023-02-25T18:41:17;4.90;99.90
20081;DHT22;10200;49.232;9.222;2023-02-25T18:43:43;4.90;99.90
20081;DHT22;10200;49.232;9.222;2023-02-25T18:46:09;4.90;99.90
20081;DHT22;10200;49.232;9.222;2023-02-25T18:48:35;4.90;99.90
20081;DHT22;10200;49.232;9.222;2023-02-25T18:51:02;4.80;99.90
20081;DHT22;10200;49.232;9.222;2023-02-25T18:53:30;4.90;99.90
20081;DHT22;10200;49.232;9.222;2023-02-25T18:55:57;4.90;99.90
20081;DHT22;10200;49.232;9.222;2023-02-25T18:58:23;4.90;99.90
20081;DHT22;10200;49.232;9.222;2023-02-25T19:00:56;5.00;99.90
20081;DHT22;10200;49.232;9.222;2023-02-25T19:03:32;4.90;99.90
20081;DHT22;10200;49.232;9.222;2023-02-25T19:05:58;4.90;99.90
20081;DHT22;10200;49.232;9.222;2023-02-25T19:08:23;4.80;99.90
20081;DHT22;10200;49.232;9.222;2023-02-25T19:10:51;4.80;99.90
20081;DHT22;10200;49.232;9.222;2023-02-25T19:13:20;4.80;99.90
20081;DHT22;10200;49.232;9.222;2023-02-25T19:15:47;4.70;99.90
20081;DHT22;10200;49.232;9.222;2023-02-25T19:18:14;4.80;99.90
20081;DHT22;10200;49.232;9.222;2023-02-25T19:20:42;4.70;99.90
20081;DHT22;10200;49.232;9.222;2023-02-25T19:23:13;4.70;99.90
20081;DHT22;10200;49.232;9.222;2023-02-25T19:25:39;4.70;99.90
20081;DHT22;10200;49.232;9.222;2023-02-25T19:28:07;4.70;99.90
20081;DHT22;10200;49.232;9.222;2023-02-25T19:30:39;4.50;99.90
20081;DHT22;10200;49.232;9.222;2023-02-25T19:33:06;4.50;99.90
20081;DHT22;10200;49.232;9.222;2023-02-25T19:35:34;4.60;99.90
20081;DHT22;10200;49.232;9.222;2023-02-25T19:38:00;4.60;99.90
20081;DHT22;10200;49.232;9.222;2023-02-25T19:40:26;4.50;99.90
20081;DHT22;10200;49.232;9.222;2023-02-25T19:42:53;4.40;99.90
20081;DHT22;10200;49.232;9.222;2023-02-25T19:45:21;4.40;99.90
20081;DHT22;10200;49.232;9.222;2023-02-25T19:47:49;4.40;99.90
20081;DHT22;10200;49.232;9.222;2023-02-25T19:50:17;4.40;99.90
20081;DHT22;10200;49.232;9.222;2023-02-25T19:52:43;4.40;99.90
20081;DHT22;10200;49.232;9.222;2023-02-25T19:55:09;4.30;99.90
20081;DHT22;10200;49.232;9.222;2023-02-25T19:57:36;4.20;99.90
20081;DHT22;10200;49.232;9.222;2023-02-25T20:00:03;4.30;99.90
20081;DHT22;10200;49.232;9.222;2023-02-25T20:02:29;4.30;99.90
20081;DHT22;10200;49.232;9.222;2023-02-25T20:04:56;4.30;99.90
20081;DHT22;10200;49.232;9.222;2023-02-25T20:07:23;4.30;99.90
20081;DHT22;10200;49.232;9.222;2023-02-25T20:09:49;4.30;99.90
20081;DHT22;10200;49.232;9.222;2023-02-25T20:12:16;4.40;99.90
20081;DHT22;10200;49.232;9.222;2023-02-25T20:14:42;4.40;99.90
20081;DHT22;10200;49.232;9.222;2023-02-25T20:17:07;4.30;99.90
20081;DHT22;10200;49.232;9.222;2023-02-25T20:19:33;4.30;99.90
20081;DHT22;10200;49.232;9.222;2023-02-25T20:22:00;4.30;99.90
20081;DHT22;10200;49.232;9.222;2023-02-25T20:24:26;4.30;99.90
20081;DHT22;10200;49.232;9.222;2023-02-25T20:26:52;4.30;99.90
20081;DHT22;10200;49.232;9.222;2023-02-25T20:29:18;4.30;99.90
20081;DHT22;10200;49.232;9.222;2023-02-25T20:31:44;4.30;99.90